Coastal 303 — WDE2540 — position and weather

sailwx.info

Track history (hours):
 
Tides and Currents Weather Stations Pressure Air Temp Water Temp Dewpoint Dewpoint Depression Visibility Wind Speed Wind Dir Waves Ship Positions

Coastal 303

More information available from US FCC via Universal Licensing System and Coast Guard Vessel Documentation Center.

Last reported at 2014-Jul-29 00:32 UTC. Time now 2014-Aug-01 05:55 UTC.
Position N 27°40' W 082°36'.

Length 180 m; draft 9 m.

Type: Towing. MMSI: 366751340.

Date/timePositionNaut miles runAvg speedWind from/ knotsBaromVisibWave heightAir tempDewpointWater temp
2014-Jul-29 00:32N 27°40' W 082°36'9 9.3
2014-Jul-28 23:33N 27°47' W 082°30'8 7.9
2014-Jul-28 22:33N 27°54' W 082°26'1 0.7
2014-Jul-28 21:31N 27°54' W 082°25'0 0.0
2014-Jul-28 20:31N 27°54' W 082°25'0 0.0
2014-Jul-28 19:31N 27°54' W 082°25'0 0.0
2014-Jul-28 18:22N 27°54' W 082°25'0 0.0
2014-Jul-28 17:28N 27°54' W 082°25'0 0.0
2014-Jul-28 16:22N 27°54' W 082°25'0 0.0
2014-Jul-28 15:31N 27°54' W 082°25'0 0.0
2014-Jul-28 14:31N 27°54' W 082°25'0 0.0
2014-Jul-28 13:28N 27°54' W 082°25'0 0.0
2014-Jul-28 12:31N 27°54' W 082°25'0 0.0
2014-Jul-28 11:31N 27°54' W 082°25'0 0.0
2014-Jul-28 10:31N 27°54' W 082°25'0 0.0
2014-Jul-28 09:31N 27°54' W 082°25'0 0.0
2014-Jul-28 08:28N 27°54' W 082°25'0 0.0
2014-Jul-28 07:34N 27°54' W 082°25'1 0.7
2014-Jul-28 06:33N 27°54' W 082°26'3 3.3
2014-Jul-28 05:33N 27°51' W 082°25'1 1.2
2014-Jul-28 04:22N 27°51' W 082°24'0 0.0
2014-Jul-28 03:31N 27°51' W 082°24'0 0.0
2014-Jul-28 02:13N 27°51' W 082°24'0 0.0
2014-Jul-28 01:31N 27°51' W 082°24'0 0.0
2014-Jul-26 16:33N 27°51' W 082°24'4 4.0
2014-Jul-26 15:33N 27°49' W 082°27'2 2.0
2014-Jul-26 14:33N 27°48' W 082°25'0 0.0
2014-Jul-26 13:33N 27°48' W 082°25'0 0.1
2014-Jul-26 12:33N 27°48' W 082°25'0 0.0
2014-Jul-26 11:33N 27°48' W 082°25'0 0.0
2014-Jul-26 10:33N 27°48' W 082°25'0 0.0
2014-Jul-26 09:33N 27°48' W 082°25'0 0.0
2014-Jul-26 08:30N 27°48' W 082°25'0 0.0
2014-Jul-26 07:33N 27°48' W 082°25'0 0.0
2014-Jul-26 06:33N 27°48' W 082°25'0 0.0
2014-Jul-26 05:33N 27°48' W 082°25'0 0.0
2014-Jul-26 04:33N 27°48' W 082°25'0 0.0
2014-Jul-26 03:33N 27°48' W 082°25'0 0.0
2014-Jul-26 02:33N 27°48' W 082°25'0 0.0
2014-Jul-26 01:33N 27°48' W 082°25'0 0.0
2014-Jul-26 00:33N 27°48' W 082°25'0 0.0
2014-Jul-25 23:33N 27°48' W 082°25'0 0.0
2014-Jul-25 22:33N 27°48' W 082°25'0 0.0
2014-Jul-25 21:33N 27°48' W 082°25'0 0.0
2014-Jul-25 20:33N 27°48' W 082°25'0 0.0
2014-Jul-25 19:33N 27°48' W 082°25'0 0.0
2014-Jul-25 18:33N 27°48' W 082°25'0 0.0
2014-Jul-25 17:33N 27°48' W 082°25'0 0.0
2014-Jul-25 16:33N 27°48' W 082°25'0 0.0
2014-Jul-25 15:33N 27°48' W 082°25'0 0.0
2014-Jul-25 14:33N 27°48' W 082°25'0 0.0
2014-Jul-25 13:33N 27°48' W 082°25'0 0.0
2014-Jul-25 12:33N 27°48' W 082°25'0 0.0
2014-Jul-25 11:33N 27°48' W 082°25'0 0.0
2014-Jul-25 10:33N 27°48' W 082°25'0 0.0
2014-Jul-25 09:33N 27°48' W 082°25'0 0.0
2014-Jul-25 08:33N 27°48' W 082°25'0 0.0
2014-Jul-25 07:33N 27°48' W 082°25'0 0.0
2014-Jul-25 06:33N 27°48' W 082°25'0 0.0
2014-Jul-25 05:33N 27°48' W 082°25'0 0.0
2014-Jul-25 04:33N 27°48' W 082°25'0 0.0
2014-Jul-25 03:30N 27°48' W 082°25'0 0.0
2014-Jul-25 02:33N 27°48' W 082°25'0 0.0
2014-Jul-25 01:33N 27°48' W 082°25'0 0.0
2014-Jul-25 00:33N 27°48' W 082°25'0 0.0
2014-Jul-24 23:30N 27°48' W 082°25'0 0.0
2014-Jul-24 22:33N 27°48' W 082°25'0 0.0
2014-Jul-24 21:33N 27°48' W 082°25'0 0.0
2014-Jul-24 20:33N 27°48' W 082°25'0 0.0
2014-Jul-24 19:31N 27°48' W 082°25'0 0.0
2014-Jul-24 18:31N 27°48' W 082°25'0 0.0
2014-Jul-24 17:26N 27°48' W 082°25'0 0.0
2014-Jul-24 16:32N 27°48' W 082°25'0 0.0
2014-Jul-24 15:26N 27°48' W 082°25'0 0.0
2014-Jul-24 14:33N 27°48' W 082°25'0 0.0
2014-Jul-24 13:34N 27°48' W 082°25'0 0.1
2014-Jul-24 12:33N 27°48' W 082°25'0 0.0
2014-Jul-24 11:33N 27°48' W 082°25'2 1.7
2014-Jul-24 10:33N 27°49' W 082°27'6 6.0
2014-Jul-24 09:33N 27°45' W 082°32'8 7.7
2014-Jul-24 08:33N 27°39' W 082°37'8 8.3
2014-Jul-24 07:33N 27°37' W 082°46'9 8.8
2014-Jul-24 06:33N 27°36' W 082°56'1 1.3
2014-Jul-24 05:33N 27°37' W 082°56'0 0.1
2014-Jul-24 04:33N 27°37' W 082°56'0 0.0
2014-Jul-24 03:33N 27°37' W 082°56'0 0.0
2014-Jul-24 02:33N 27°37' W 082°56'0 0.0
2014-Jul-24 01:30N 27°37' W 082°56'0 0.0
2014-Jul-24 00:30N 27°37' W 082°56'0 0.0
2014-Jul-23 23:33N 27°37' W 082°56'0 0.0
2014-Jul-23 22:30N 27°37' W 082°56'0 0.1
2014-Jul-23 21:33N 27°37' W 082°56'0 0.0
2014-Jul-23 20:33N 27°37' W 082°56'0 0.0
2014-Jul-23 19:33N 27°37' W 082°56'0 0.0
2014-Jul-23 18:33N 27°37' W 082°56'0 0.0
2014-Jul-23 17:30N 27°37' W 082°56'0 0.1
2014-Jul-23 16:33N 27°37' W 082°56'0 0.0
2014-Jul-23 15:33N 27°37' W 082°56'0 0.0
2014-Jul-23 14:33N 27°37' W 082°56'0 0.0
2014-Jul-23 13:33N 27°37' W 082°56'0 0.2
2014-Jul-23 12:34N 27°37' W 082°56'6 5.7
2014-Jul-23 11:33N 27°37' W 083°03'  
Track history (hours):
 
Tides and Currents Weather Stations Pressure Air Temp Water Temp Dewpoint Dewpoint Depression Visibility Wind Speed Wind Dir Waves Ship Positions

Coastal 303

More information available from US FCC via Universal Licensing System and Coast Guard Vessel Documentation Center.

Last reported at 2014-Jul-29 00:32 UTC. Time now 2014-Aug-01 05:55 UTC.
Position N 27°40' W 082°36'.

Length 180 m; draft 9 m.

Type: Towing. MMSI: 366751340.

Date/timePositionNaut miles runAvg speedWind from/ knotsBaromVisibWave heightAir tempDewpointWater temp
2014-Jul-29 00:32N 27°40' W 082°36'9 9.3
2014-Jul-28 23:33N 27°47' W 082°30'8 7.9
2014-Jul-28 22:33N 27°54' W 082°26'1 0.7
2014-Jul-28 21:31N 27°54' W 082°25'0 0.0
2014-Jul-28 20:31N 27°54' W 082°25'0 0.0
2014-Jul-28 19:31N 27°54' W 082°25'0 0.0
2014-Jul-28 18:22N 27°54' W 082°25'0 0.0
2014-Jul-28 17:28N 27°54' W 082°25'0 0.0
2014-Jul-28 16:22N 27°54' W 082°25'0 0.0
2014-Jul-28 15:31N 27°54' W 082°25'0 0.0
2014-Jul-28 14:31N 27°54' W 082°25'0 0.0
2014-Jul-28 13:28N 27°54' W 082°25'0 0.0
2014-Jul-28 12:31N 27°54' W 082°25'0 0.0
2014-Jul-28 11:31N 27°54' W 082°25'0 0.0
2014-Jul-28 10:31N 27°54' W 082°25'0 0.0
2014-Jul-28 09:31N 27°54' W 082°25'0 0.0
2014-Jul-28 08:28N 27°54' W 082°25'0 0.0
2014-Jul-28 07:34N 27°54' W 082°25'1 0.7
2014-Jul-28 06:33N 27°54' W 082°26'3 3.3
2014-Jul-28 05:33N 27°51' W 082°25'1 1.2
2014-Jul-28 04:22N 27°51' W 082°24'0 0.0
2014-Jul-28 03:31N 27°51' W 082°24'0 0.0
2014-Jul-28 02:13N 27°51' W 082°24'0 0.0
2014-Jul-28 01:31N 27°51' W 082°24'0 0.0
2014-Jul-26 16:33N 27°51' W 082°24'4 4.0
2014-Jul-26 15:33N 27°49' W 082°27'2 2.0
2014-Jul-26 14:33N 27°48' W 082°25'0 0.0
2014-Jul-26 13:33N 27°48' W 082°25'0 0.1
2014-Jul-26 12:33N 27°48' W 082°25'0 0.0
2014-Jul-26 11:33N 27°48' W 082°25'0 0.0
2014-Jul-26 10:33N 27°48' W 082°25'0 0.0
2014-Jul-26 09:33N 27°48' W 082°25'0 0.0
2014-Jul-26 08:30N 27°48' W 082°25'0 0.0
2014-Jul-26 07:33N 27°48' W 082°25'0 0.0
2014-Jul-26 06:33N 27°48' W 082°25'0 0.0
2014-Jul-26 05:33N 27°48' W 082°25'0 0.0
2014-Jul-26 04:33N 27°48' W 082°25'0 0.0
2014-Jul-26 03:33N 27°48' W 082°25'0 0.0
2014-Jul-26 02:33N 27°48' W 082°25'0 0.0
2014-Jul-26 01:33N 27°48' W 082°25'0 0.0
2014-Jul-26 00:33N 27°48' W 082°25'0 0.0
2014-Jul-25 23:33N 27°48' W 082°25'0 0.0
2014-Jul-25 22:33N 27°48' W 082°25'0 0.0
2014-Jul-25 21:33N 27°48' W 082°25'0 0.0
2014-Jul-25 20:33N 27°48' W 082°25'0 0.0
2014-Jul-25 19:33N 27°48' W 082°25'0 0.0
2014-Jul-25 18:33N 27°48' W 082°25'0 0.0
2014-Jul-25 17:33N 27°48' W 082°25'0 0.0
2014-Jul-25 16:33N 27°48' W 082°25'0 0.0
2014-Jul-25 15:33N 27°48' W 082°25'0 0.0
2014-Jul-25 14:33N 27°48' W 082°25'0 0.0
2014-Jul-25 13:33N 27°48' W 082°25'0 0.0
2014-Jul-25 12:33N 27°48' W 082°25'0 0.0
2014-Jul-25 11:33N 27°48' W 082°25'0 0.0
2014-Jul-25 10:33N 27°48' W 082°25'0 0.0
2014-Jul-25 09:33N 27°48' W 082°25'0 0.0
2014-Jul-25 08:33N 27°48' W 082°25'0 0.0
2014-Jul-25 07:33N 27°48' W 082°25'0 0.0
2014-Jul-25 06:33N 27°48' W 082°25'0 0.0
2014-Jul-25 05:33N 27°48' W 082°25'0 0.0
2014-Jul-25 04:33N 27°48' W 082°25'0 0.0
2014-Jul-25 03:30N 27°48' W 082°25'0 0.0
2014-Jul-25 02:33N 27°48' W 082°25'0 0.0
2014-Jul-25 01:33N 27°48' W 082°25'0 0.0
2014-Jul-25 00:33N 27°48' W 082°25'0 0.0
2014-Jul-24 23:30N 27°48' W 082°25'0 0.0
2014-Jul-24 22:33N 27°48' W 082°25'0 0.0
2014-Jul-24 21:33N 27°48' W 082°25'0 0.0
2014-Jul-24 20:33N 27°48' W 082°25'0 0.0
2014-Jul-24 19:31N 27°48' W 082°25'0 0.0
2014-Jul-24 18:31N 27°48' W 082°25'0 0.0
2014-Jul-24 17:26N 27°48' W 082°25'0 0.0
2014-Jul-24 16:32N 27°48' W 082°25'0 0.0
2014-Jul-24 15:26N 27°48' W 082°25'0 0.0
2014-Jul-24 14:33N 27°48' W 082°25'0 0.0
2014-Jul-24 13:34N 27°48' W 082°25'0 0.1
2014-Jul-24 12:33N 27°48' W 082°25'0 0.0
2014-Jul-24 11:33N 27°48' W 082°25'2 1.7
2014-Jul-24 10:33N 27°49' W 082°27'6 6.0
2014-Jul-24 09:33N 27°45' W 082°32'8 7.7
2014-Jul-24 08:33N 27°39' W 082°37'8 8.3
2014-Jul-24 07:33N 27°37' W 082°46'9 8.8
2014-Jul-24 06:33N 27°36' W 082°56'1 1.3
2014-Jul-24 05:33N 27°37' W 082°56'0 0.1
2014-Jul-24 04:33N 27°37' W 082°56'0 0.0
2014-Jul-24 03:33N 27°37' W 082°56'0 0.0
2014-Jul-24 02:33N 27°37' W 082°56'0 0.0
2014-Jul-24 01:30N 27°37' W 082°56'0 0.0
2014-Jul-24 00:30N 27°37' W 082°56'0 0.0
2014-Jul-23 23:33N 27°37' W 082°56'0 0.0
2014-Jul-23 22:30N 27°37' W 082°56'0 0.1
2014-Jul-23 21:33N 27°37' W 082°56'0 0.0
2014-Jul-23 20:33N 27°37' W 082°56'0 0.0
2014-Jul-23 19:33N 27°37' W 082°56'0 0.0
2014-Jul-23 18:33N 27°37' W 082°56'0 0.0
2014-Jul-23 17:30N 27°37' W 082°56'0 0.1
2014-Jul-23 16:33N 27°37' W 082°56'0 0.0
2014-Jul-23 15:33N 27°37' W 082°56'0 0.0
2014-Jul-23 14:33N 27°37' W 082°56'0 0.0
2014-Jul-23 13:33N 27°37' W 082°56'0 0.2
2014-Jul-23 12:34N 27°37' W 082°56'6 5.7
2014-Jul-23 11:33N 27°37' W 083°03'  

Dump ship's entire track history